Time;durP1;ratioP1;P1;durP2;ratioP2;P2;SDS_P1;SDS_P2;PMS_P1;PMS_P2;Temp;Humidity;BMP_temperature;BMP_pressure;BME280_temperature;BME280_humidity;BME280_pressure;Samples;Min_cycle;Max_cycle;Signal;HPM_P1;HPM_P2
2023/08/12 00:01:11;;;;;;;6.67;4.67;;;16.60;99.90;;;;;;5040974;28;20208;-79
2023/08/12 00:03:40;;;;;;;5.17;4.20;;;16.60;99.90;;;;;;5032020;28;20208;-80
2023/08/12 00:06:08;;;;;;;4.90;4.40;;;16.60;99.90;;;;;;5032294;28;20654;-78
2023/08/12 00:08:36;;;;;;;6.87;4.43;;;16.50;99.90;;;;;;5031952;28;20766;-79
2023/08/12 00:11:06;;;;;;;7.07;4.53;;;16.50;99.90;;;;;;5031855;28;20670;-79
2023/08/12 00:13:34;;;;;;;5.30;4.77;;;16.40;99.90;;;;;;5031927;28;20255;-79
2023/08/12 00:16:02;;;;;;;8.53;4.67;;;16.30;99.90;;;;;;5031918;28;20282;-78
2023/08/12 00:18:36;;;;;;;7.57;4.70;;;16.30;99.90;;;;;;5031785;28;20698;-76
2023/08/12 00:21:09;;;;;;;6.07;4.63;;;16.20;99.90;;;;;;5035427;28;20604;-79
2023/08/12 00:23:39;;;;;;;7.07;4.67;;;16.20;99.90;;;;;;5035335;28;20218;-77
2023/08/12 00:26:09;;;;;;;11.33;4.90;;;16.10;99.90;;;;;;5035536;28;20229;-79
2023/08/12 00:28:37;;;;;;;8.57;4.87;;;16.00;99.90;;;;;;5035811;28;20213;-78
2023/08/12 00:31:06;;;;;;;8.47;4.93;;;16.00;99.90;;;;;;5035850;28;20213;-76
2023/08/12 00:33:34;;;;;;;5.03;4.53;;;16.00;99.90;;;;;;5035938;28;20299;-78
2023/08/12 00:36:02;;;;;;;7.73;4.77;;;15.90;99.90;;;;;;5036472;28;20209;-77
2023/08/12 00:38:30;;;;;;;8.10;4.80;;;16.00;99.90;;;;;;5035739;28;20235;-79
2023/08/12 00:40:59;;;;;;;7.73;5.00;;;15.90;99.90;;;;;;5034245;28;20428;-78
2023/08/12 00:43:28;;;;;;;6.03;4.93;;;15.90;99.90;;;;;;5034065;28;20209;-78
2023/08/12 00:45:56;;;;;;;5.10;4.40;;;15.90;99.90;;;;;;5034327;28;20303;-79
2023/08/12 00:48:25;;;;;;;7.10;5.00;;;15.80;99.90;;;;;;5034495;28;20208;-79
2023/08/12 00:50:53;;;;;;;6.93;4.60;;;15.80;99.90;;;;;;5034651;28;20239;-79
2023/08/12 00:53:21;;;;;;;6.33;4.60;;;15.80;99.90;;;;;;5042026;28;20552;-79
2023/08/12 00:55:50;;;;;;;6.80;4.77;;;15.80;99.90;;;;;;5054856;28;20212;-78
2023/08/12 00:58:18;;;;;;;7.13;4.90;;;15.70;99.90;;;;;;5055176;28;20281;-79
2023/08/12 01:00:48;;;;;;;7.87;4.60;;;15.60;99.90;;;;;;5055221;28;20212;-79
2023/08/12 01:03:17;;;;;;;6.40;4.53;;;15.60;99.90;;;;;;5039832;28;20236;-79
2023/08/12 01:05:45;;;;;;;7.30;4.83;;;15.50;99.90;;;;;;5035181;28;20489;-79
2023/08/12 01:08:13;;;;;;;8.27;5.00;;;15.50;99.90;;;;;;5034894;28;20221;-76
2023/08/12 01:10:47;;;;;;;4.90;4.40;;;15.40;99.90;;;;;;5034825;28;20259;-78
2023/08/12 01:13:26;;;;;;;6.27;5.10;;;15.40;99.90;;;;;;5034685;28;20674;-77
2023/08/12 01:16:00;;;;;;;7.53;5.70;;;15.40;99.90;;;;;;5035018;28;20204;-80
2023/08/12 01:18:28;;;;;;;6.40;5.23;;;15.30;99.90;;;;;;5034869;28;20263;-78
2023/08/12 01:20:57;;;;;;;8.10;5.80;;;15.30;99.90;;;;;;5034823;28;20259;-79
2023/08/12 01:23:26;;;;;;;7.43;5.20;;;15.30;99.90;;;;;;5034695;28;20630;-78
2023/08/12 01:25:54;;;;;;;6.03;5.17;;;15.20;99.90;;;;;;5040486;28;20303;-79
2023/08/12 01:28:23;;;;;;;6.43;5.67;;;15.20;99.90;;;;;;5054830;28;20212;-77
2023/08/12 01:30:57;;;;;;;6.57;5.33;;;15.20;99.90;;;;;;5053144;28;20207;-78
2023/08/12 01:33:35;;;;;;;7.07;5.50;;;15.10;99.90;;;;;;5054322;28;20211;-79
2023/08/12 01:36:10;;;;;;;6.93;5.57;;;15.10;99.90;;;;;;5054751;28;20615;-78
2023/08/12 01:38:41;;;;;;;8.33;5.93;;;15.00;99.90;;;;;;5043237;28;20245;-79
2023/08/12 01:41:10;;;;;;;6.33;5.43;;;15.00;99.90;;;;;;5034620;28;20255;-79
2023/08/12 01:43:39;;;;;;;7.67;5.90;;;15.00;99.90;;;;;;5033922;28;20655;-79
2023/08/12 01:46:07;;;;;;;6.80;5.90;;;15.00;99.90;;;;;;5034345;28;20232;-79
2023/08/12 01:48:35;;;;;;;6.63;5.93;;;14.90;99.90;;;;;;5048147;28;20714;-79
2023/08/12 01:51:04;;;;;;;7.00;5.77;;;14.90;99.90;;;;;;5054377;28;20254;-79
2023/08/12 01:53:32;;;;;;;7.83;6.17;;;14.80;99.90;;;;;;5053693;28;20208;-78
2023/08/12 01:56:02;;;;;;;7.70;6.87;;;14.80;99.90;;;;;;5039752;28;20493;-78
2023/08/12 01:58:30;;;;;;;9.33;6.97;;;14.70;99.90;;;;;;5033853;28;20208;-78
2023/08/12 02:00:58;;;;;;;8.53;7.50;;;14.70;99.90;;;;;;5033962;28;20643;-78
2023/08/12 02:03:26;;;;;;;9.73;7.70;;;14.80;99.90;;;;;;5033489;28;20668;-79
2023/08/12 02:05:54;;;;;;;7.93;6.73;;;14.80;99.90;;;;;;5033878;28;20209;-78
2023/08/12 02:08:23;;;;;;;9.27;7.70;;;14.80;99.90;;;;;;5047385;28;20218;-79
2023/08/12 02:10:51;;;;;;;8.53;7.40;;;14.80;99.90;;;;;;5048983;28;20682;-77
2023/08/12 02:13:21;;;;;;;10.33;7.67;;;14.80;99.90;;;;;;5033932;28;20215;-78
2023/08/12 02:15:49;;;;;;;10.33;7.67;;;14.80;99.90;;;;;;5033672;28;20209;-79
2023/08/12 02:18:17;;;;;;;9.80;7.20;;;14.80;99.90;;;;;;5034120;28;20205;-78
2023/08/12 02:20:48;;;;;;;10.17;7.80;;;14.80;99.90;;;;;;5033793;28;20243;-77
2023/08/12 02:23:16;;;;;;;8.03;7.30;;;14.80;99.90;;;;;;5033371;28;20267;-74
2023/08/12 02:25:44;;;;;;;9.30;7.17;;;14.80;99.90;;;;;;5033295;28;20209;-78
2023/08/12 02:28:13;;;;;;;8.63;7.73;;;14.80;99.90;;;;;;5033216;28;20224;-76
2023/08/12 02:30:44;;;;;;;9.80;8.10;;;14.70;99.90;;;;;;5033143;28;20213;-78
2023/08/12 02:33:12;;;;;;;9.10;8.20;;;14.70;99.90;;;;;;5033444;28;20197;-76
2023/08/12 02:35:40;;;;;;;10.47;8.77;;;14.70;99.90;;;;;;5033193;28;20365;-78
2023/08/12 02:38:08;;;;;;;9.13;8.23;;;14.70;99.90;;;;;;5033093;28;20236;-76
2023/08/12 02:40:36;;;;;;;9.27;8.37;;;14.80;99.90;;;;;;5033052;28;20259;-77
2023/08/12 02:43:05;;;;;;;9.93;8.60;;;14.80;99.90;;;;;;5032163;28;20671;-76
2023/08/12 02:45:33;;;;;;;9.10;8.10;;;14.70;99.90;;;;;;5033837;28;20267;-73
2023/08/12 02:48:03;;;;;;;9.73;8.50;;;14.70;99.90;;;;;;5034617;28;20679;-77
2023/08/12 02:50:31;;;;;;;8.70;7.80;;;14.70;99.90;;;;;;5038094;28;20200;-78
2023/08/12 02:52:59;;;;;;;9.47;7.80;;;14.60;99.90;;;;;;5052725;28;20208;-76
2023/08/12 02:55:27;;;;;;;9.47;8.17;;;14.60;99.90;;;;;;5053716;28;20231;-79
2023/08/12 02:57:56;;;;;;;8.97;8.07;;;14.60;99.90;;;;;;5052919;28;20223;-79
2023/08/12 03:00:24;;;;;;;11.50;8.30;;;14.60;99.90;;;;;;5051612;28;20222;-79
2023/08/12 03:02:52;;;;;;;9.63;8.33;;;14.60;99.90;;;;;;5032565;28;20267;-79
2023/08/12 03:05:22;;;;;;;9.30;8.40;;;14.60;99.90;;;;;;5032690;28;20671;-79
2023/08/12 03:07:51;;;;;;;9.47;8.43;;;14.60;99.90;;;;;;5032663;28;20233;-79
2023/08/12 03:10:20;;;;;;;10.33;7.97;;;14.50;99.90;;;;;;5032787;28;20263;-78
2023/08/12 03:12:48;;;;;;;10.50;8.30;;;14.60;99.90;;;;;;5032676;28;20240;-77
2023/08/12 03:15:16;;;;;;;9.90;8.20;;;14.50;99.90;;;;;;5032599;28;20209;-80
2023/08/12 03:17:44;;;;;;;10.03;8.30;;;14.50;99.90;;;;;;5033111;28;20209;-79
2023/08/12 03:20:12;;;;;;;9.53;8.60;;;14.50;99.90;;;;;;5032748;28;20293;-79
2023/08/12 03:22:41;;;;;;;9.87;8.63;;;14.40;99.90;;;;;;5032737;28;20209;-79
2023/08/12 03:25:10;;;;;;;9.47;8.47;;;14.40;99.90;;;;;;5032622;28;20209;-79
2023/08/12 03:27:38;;;;;;;9.87;8.20;;;14.40;99.90;;;;;;5032336;28;20702;-79
2023/08/12 03:30:07;;;;;;;10.27;8.33;;;14.40;99.90;;;;;;5032544;28;20216;-78
2023/08/12 03:32:35;;;;;;;13.50;8.80;;;14.40;99.90;;;;;;5032108;28;20205;-78
2023/08/12 03:35:04;;;;;;;11.10;8.90;;;14.40;99.90;;;;;;5032625;28;20208;-79
2023/08/12 03:37:33;;;;;;;10.10;8.60;;;14.40;99.90;;;;;;5033923;28;20655;-78
2023/08/12 03:40:03;;;;;;;10.53;9.37;;;14.40;99.90;;;;;;5052345;28;20204;-76
2023/08/12 03:42:31;;;;;;;10.03;8.67;;;14.40;99.90;;;;;;5052057;28;20257;-78
2023/08/12 03:44:59;;;;;;;9.90;8.40;;;14.40;99.90;;;;;;5042187;28;20262;-78
2023/08/12 03:47:27;;;;;;;11.33;8.70;;;14.40;99.90;;;;;;5032406;28;20253;-78
2023/08/12 03:49:55;;;;;;;9.60;8.10;;;14.40;99.90;;;;;;5032003;28;20205;-78
2023/08/12 03:52:24;;;;;;;9.07;8.17;;;14.40;99.90;;;;;;5048282;28;20657;-80
2023/08/12 03:54:52;;;;;;;8.63;7.73;;;14.30;99.90;;;;;;5031955;28;20627;-78
2023/08/12 03:57:22;;;;;;;9.27;8.20;;;14.30;99.90;;;;;;5032106;28;20224;-78
2023/08/12 03:59:50;;;;;;;9.33;7.90;;;14.20;99.90;;;;;;5031976;28;20209;-77
2023/08/12 04:02:18;;;;;;;10.33;7.53;;;14.20;99.90;;;;;;5031802;28;20216;-78
2023/08/12 04:04:46;;;;;;;9.83;8.50;;;14.20;99.90;;;;;;5031913;28;20263;-80
2023/08/12 04:07:14;;;;;;;9.73;8.53;;;14.10;99.90;;;;;;5039668;28;20212;-78
2023/08/12 04:09:42;;;;;;;9.30;8.30;;;14.20;99.90;;;;;;5041391;28;20196;-78
2023/08/12 04:12:10;;;;;;;12.30;8.90;;;14.20;99.90;;;;;;5049414;28;20204;-78
2023/08/12 04:14:40;;;;;;;13.30;8.90;;;14.20;99.90;;;;;;5051181;28;20234;-78
2023/08/12 04:17:09;;;;;;;9.30;8.03;;;14.20;99.90;;;;;;5048995;28;20207;-78
2023/08/12 04:19:37;;;;;;;10.40;8.70;;;14.20;99.90;;;;;;5045940;28;20208;-79
2023/08/12 04:22:05;;;;;;;10.73;8.70;;;14.20;99.90;;;;;;5046056;28;20236;-78
2023/08/12 04:24:33;;;;;;;9.03;8.13;;;14.20;99.90;;;;;;5051489;28;20249;-78
2023/08/12 04:27:02;;;;;;;9.83;8.80;;;14.20;99.90;;;;;;5051801;28;20212;-79
2023/08/12 04:29:30;;;;;;;10.00;8.57;;;14.20;99.90;;;;;;5051625;28;20278;-79
2023/08/12 04:31:59;;;;;;;10.57;8.60;;;14.20;99.90;;;;;;5037877;28;20216;-78
2023/08/12 04:34:27;;;;;;;9.73;8.70;;;14.30;99.90;;;;;;5031497;28;20239;-78
2023/08/12 04:36:56;;;;;;;9.50;8.50;;;14.30;99.90;;;;;;5032069;28;20481;-79
2023/08/12 04:39:24;;;;;;;8.50;7.63;;;14.30;99.90;;;;;;5031631;28;20266;-78
2023/08/12 04:41:52;;;;;;;9.80;8.07;;;14.30;99.90;;;;;;5034422;28;20670;-78
2023/08/12 04:44:20;;;;;;;13.67;8.90;;;14.30;99.90;;;;;;5051831;28;20212;-76
2023/08/12 04:46:48;;;;;;;9.07;8.17;;;14.40;99.90;;;;;;5043062;28;20294;-79
2023/08/12 04:49:18;;;;;;;9.30;8.40;;;14.40;99.90;;;;;;5034007;28;20240;-77
2023/08/12 04:51:46;;;;;;;9.23;8.20;;;14.40;99.90;;;;;;5051338;28;20675;-79
2023/08/12 04:54:14;;;;;;;10.17;8.47;;;14.50;99.90;;;;;;5031764;28;20205;-78
2023/08/12 04:56:42;;;;;;;10.20;8.83;;;14.50;99.90;;;;;;5031677;28;20278;-77
2023/08/12 04:59:10;;;;;;;9.23;7.93;;;14.60;99.90;;;;;;5031744;28;20213;-78
2023/08/12 05:01:38;;;;;;;9.33;8.10;;;14.60;99.90;;;;;;5031642;28;20296;-79
2023/08/12 05:04:27;;;;;;;10.43;8.30;;;14.70;99.90;;;;;;5035620;28;20204;-77
2023/08/12 05:06:55;;;;;;;11.07;8.07;;;14.80;99.90;;;;;;5054264;28;20223;-78
2023/08/12 05:09:23;;;;;;;8.50;7.70;;;14.80;99.90;;;;;;5055038;28;20231;-77
2023/08/12 05:11:51;;;;;;;10.47;8.10;;;14.90;99.90;;;;;;5045559;28;20216;-75
2023/08/12 05:14:19;;;;;;;9.70;8.00;;;14.90;99.90;;;;;;5035493;28;20212;-79
2023/08/12 05:16:47;;;;;;;8.50;7.53;;;15.00;99.90;;;;;;5035352;28;20208;-78
2023/08/12 05:19:15;;;;;;;10.27;7.43;;;15.00;99.90;;;;;;5034801;28;20710;-80
2023/08/12 05:21:45;;;;;;;11.60;7.97;;;15.10;99.90;;;;;;5035354;28;20217;-78
2023/08/12 05:24:13;;;;;;;9.70;7.80;;;15.20;99.90;;;;;;5035029;28;20271;-78
2023/08/12 05:26:41;;;;;;;8.70;7.57;;;15.30;99.90;;;;;;5035233;28;20213;-76
2023/08/12 05:29:09;;;;;;;8.63;7.47;;;15.30;99.90;;;;;;5036283;28;20237;-77
2023/08/12 05:31:37;;;;;;;8.83;7.30;;;15.40;99.90;;;;;;5037840;28;20262;-77
2023/08/12 05:34:06;;;;;;;8.23;7.37;;;15.50;99.90;;;;;;5038056;28;20288;-77
2023/08/12 05:36:34;;;;;;;10.00;7.30;;;15.50;99.90;;;;;;5035342;28;20300;-77
2023/08/12 05:39:04;;;;;;;7.97;7.17;;;15.60;99.90;;;;;;5035132;28;20205;-76
2023/08/12 05:41:32;;;;;;;9.43;7.43;;;15.70;99.90;;;;;;5052225;28;20204;-77
2023/08/12 05:44:00;;;;;;;9.07;7.43;;;15.80;99.90;;;;;;5054507;28;20242;-78
2023/08/12 05:46:28;;;;;;;10.13;7.73;;;15.90;99.90;;;;;;5054188;28;20231;-78
2023/08/12 05:48:56;;;;;;;7.70;6.90;;;16.00;99.90;;;;;;5051703;28;20236;-76
2023/08/12 05:51:25;;;;;;;8.43;7.60;;;16.10;99.90;;;;;;5054511;28;20628;-76
2023/08/12 05:53:57;;;;;;;8.13;7.27;;;16.10;99.90;;;;;;5039236;28;20228;-77
2023/08/12 05:56:27;;;;;;;10.40;6.87;;;16.20;99.90;;;;;;5034454;28;20216;-77
2023/08/12 05:58:55;;;;;;;8.40;7.10;;;16.30;99.90;;;;;;5034548;28;20213;-77
2023/08/12 06:01:24;;;;;;;7.90;7.03;;;16.40;99.90;;;;;;5034023;28;20209;-78
2023/08/12 06:03:52;;;;;;;9.13;7.10;;;16.50;99.90;;;;;;5049443;28;20208;-78
2023/08/12 06:06:21;;;;;;;7.13;6.30;;;16.70;99.90;;;;;;5054104;28;20682;-76
2023/08/12 06:08:48;;;;;;;7.27;6.57;;;16.90;99.90;;;;;;5054878;28;20232;-79
2023/08/12 06:11:17;;;;;;;7.07;6.30;;;17.00;99.90;;;;;;5045446;28;20220;-77
2023/08/12 06:13:46;;;;;;;9.27;5.70;;;17.40;99.90;;;;;;5033848;28;20276;-78
2023/08/12 06:16:15;;;;;;;6.13;5.53;;;17.80;99.90;;;;;;5034542;28;20579;-77
2023/08/12 06:18:43;;;;;;;7.17;4.80;;;18.30;99.90;;;;;;5033223;28;20241;-76
2023/08/12 06:21:11;;;;;;;6.13;4.90;;;19.00;99.90;;;;;;5034149;28;20213;-78
2023/08/12 06:23:39;;;;;;;7.27;4.70;;;19.40;99.90;;;;;;5033683;28;20213;-77
2023/08/12 06:26:07;;;;;;;7.67;4.50;;;19.70;99.90;;;;;;5033948;28;20219;-76
2023/08/12 06:28:35;;;;;;;5.40;4.50;;;20.00;99.90;;;;;;5033237;28;20228;-75
2023/08/12 06:31:05;;;;;;;5.70;4.10;;;20.10;99.90;;;;;;5033849;28;20204;-77
2023/08/12 06:33:33;;;;;;;6.23;4.10;;;20.10;99.90;;;;;;5033065;28;20578;-77
2023/08/12 06:36:01;;;;;;;6.07;4.40;;;20.20;99.90;;;;;;5033604;28;20612;-76
2023/08/12 06:38:29;;;;;;;4.37;3.97;;;20.50;99.90;;;;;;5033661;28;20209;-76
2023/08/12 06:40:57;;;;;;;6.63;4.00;;;20.50;99.90;;;;;;5033302;28;20247;-75
2023/08/12 06:43:25;;;;;;;6.67;3.97;;;20.80;99.90;;;;;;5033105;28;20663;-76
2023/08/12 06:45:57;;;;;;;6.03;3.50;;;21.10;99.90;;;;;;5033538;28;20209;-78
2023/08/12 06:48:27;;;;;;;5.53;3.63;;;21.00;99.90;;;;;;5043270;28;20676;-76
2023/08/12 06:50:56;;;;;;;5.37;3.97;;;21.30;99.90;;;;;;5032359;28;20209;-75
2023/08/12 06:53:25;;;;;;;4.67;3.50;;;21.50;99.90;;;;;;5031285;28;20209;-76
2023/08/12 06:55:54;;;;;;;4.60;3.80;;;21.80;99.90;;;;;;5031370;28;20212;-75
2023/08/12 06:58:22;;;;;;;6.77;3.83;;;22.10;99.90;;;;;;5031628;28;20212;-75
2023/08/12 07:00:52;;;;;;;5.30;3.80;;;22.10;99.90;;;;;;5032033;28;20671;-74
2023/08/12 07:03:21;;;;;;;4.80;3.63;;;22.20;99.90;;;;;;5031960;28;20220;-75
2023/08/12 07:05:50;;;;;;;4.87;3.83;;;22.50;99.90;;;;;;5032152;28;20232;-75
2023/08/12 07:08:18;;;;;;;4.70;3.40;;;22.80;99.90;;;;;;5032653;28;20272;-76
2023/08/12 07:10:46;;;;;;;4.07;3.33;;;23.20;99.90;;;;;;5033165;28;20229;-76
2023/08/12 07:13:14;;;;;;;5.97;3.63;;;23.70;99.90;;;;;;5032546;28;20671;-77
2023/08/12 07:15:43;;;;;;;3.87;3.27;;;23.60;99.90;;;;;;5033063;28;20624;-74
2023/08/12 07:18:11;;;;;;;3.60;3.20;;;23.50;99.90;;;;;;5033058;28;20306;-75
2023/08/12 07:20:39;;;;;;;5.87;3.20;;;24.40;99.90;;;;;;5032944;28;20258;-76
2023/08/12 07:23:08;;;;;;;5.90;3.27;;;24.50;99.90;;;;;;5032252;28;20212;-75
2023/08/12 07:25:37;;;;;;;5.93;3.30;;;25.50;99.90;;;;;;5032873;28;20659;-76
2023/08/12 07:28:07;;;;;;;6.57;3.20;;;26.10;99.90;;;;;;5032625;28;20274;-78
2023/08/12 07:30:36;;;;;;;4.78;2.75;;;26.60;99.90;;;;;;5032333;28;20279;-77
2023/08/12 07:33:06;;;;;;;3.45;3.10;;;27.10;99.90;;;;;;5032053;28;20580;-74
2023/08/12 07:35:34;;;;;;;4.65;2.85;;;27.60;97.60;;;;;;5032822;28;20216;-74
2023/08/12 07:38:02;;;;;;;4.72;2.70;;;28.40;96.20;;;;;;5032949;28;20196;-78
2023/08/12 07:40:32;;;;;;;4.55;2.70;;;29.70;92.80;;;;;;5032621;28;20299;-76
2023/08/12 07:43:00;;;;;;;4.25;3.00;;;29.90;91.60;;;;;;5032108;28;20373;-77
2023/08/12 07:45:28;;;;;;;4.13;2.78;;;29.40;90.00;;;;;;5038185;28;20212;-76
2023/08/12 07:47:56;;;;;;;5.13;2.70;;;29.70;91.50;;;;;;5052246;28;20282;-76
2023/08/12 07:50:24;;;;;;;7.18;2.67;;;30.10;89.80;;;;;;5050665;28;20599;-74
2023/08/12 07:52:53;;;;;;;6.05;3.22;;;30.80;86.20;;;;;;5032185;28;20571;-77
2023/08/12 07:55:21;;;;;;;5.00;2.63;;;31.10;83.10;;;;;;5031866;28;20258;-77
2023/08/12 07:57:53;;;;;;;2.60;2.40;;;32.10;78.70;;;;;;5032343;28;20572;-78
2023/08/12 08:00:22;;;;;;;3.58;2.65;;;32.90;76.70;;;;;;5031523;28;20713;-76
2023/08/12 08:02:50;;;;;;;4.63;2.50;;;33.50;67.60;;;;;;5031629;28;20433;-77
2023/08/12 08:05:18;;;;;;;4.28;2.90;;;33.90;64.80;;;;;;5032183;28;20217;-77
2023/08/12 08:07:46;;;;;;;8.30;2.80;;;34.20;61.50;;;;;;5031554;28;20222;-77
2023/08/12 08:10:14;;;;;;;4.45;2.60;;;34.70;58.40;;;;;;5031995;28;20266;-77
2023/08/12 08:12:43;;;;;;;3.17;2.58;;;34.80;56.70;;;;;;5031686;28;20212;-76
2023/08/12 08:15:12;;;;;;;4.60;2.38;;;34.30;56.70;;;;;;5032007;28;20208;-77
2023/08/12 08:17:40;;;;;;;4.32;2.40;;;33.80;59.80;;;;;;5031933;28;20312;-77
2023/08/12 08:20:10;;;;;;;6.40;2.85;;;33.80;55.90;;;;;;5032024;28;20261;-77
2023/08/12 08:22:39;;;;;;;4.97;2.70;;;33.10;57.40;;;;;;5031731;28;20656;-77
2023/08/12 08:25:08;;;;;;;3.30;2.50;;;33.00;59.10;;;;;;5031983;28;20247;-77
2023/08/12 08:27:36;;;;;;;4.63;2.60;;;33.40;58.80;;;;;;5031170;28;20274;-77
2023/08/12 08:30:05;;;;;;;5.13;2.50;;;32.60;57.40;;;;;;5031972;28;20209;-77
2023/08/12 08:32:34;;;;;;;3.22;2.50;;;34.00;58.10;;;;;;5031259;28;20209;-76
2023/08/12 08:35:03;;;;;;;4.05;3.00;;;34.50;56.70;;;;;;5031601;28;20219;-75
2023/08/12 08:37:31;;;;;;;4.88;2.60;;;35.10;53.10;;;;;;5031328;28;20212;-80
2023/08/12 08:39:59;;;;;;;2.67;2.47;;;34.30;56.80;;;;;;5031290;28;20224;-76
2023/08/12 08:42:29;;;;;;;5.68;2.60;;;34.10;55.30;;;;;;5034814;28;20208;-76
2023/08/12 08:45:01;;;;;;;4.45;2.72;;;35.00;53.20;;;;;;5049538;28;20274;-76
2023/08/12 08:47:30;;;;;;;3.00;2.67;;;34.90;51.60;;;;;;5054023;28;20224;-75
2023/08/12 08:50:01;;;;;;;3.78;2.70;;;34.00;52.90;;;;;;5053603;28;20670;-77
2023/08/12 08:52:29;;;;;;;3.40;2.58;;;32.80;55.40;;;;;;5034560;28;20220;-76
2023/08/12 08:54:58;;;;;;;5.22;2.85;;;33.60;57.80;;;;;;5034089;28;20309;-76
2023/08/12 08:57:32;;;;;;;3.28;2.83;;;33.30;56.50;;;;;;5034009;28;20636;-76
2023/08/12 09:00:14;;;;;;;4.75;2.85;;;34.10;54.80;;;;;;5033592;28;20303;-76
2023/08/12 09:02:47;;;;;;;3.03;2.70;;;34.90;53.50;;;;;;5038258;28;20200;-76
2023/08/12 09:05:17;;;;;;;3.22;2.75;;;34.70;55.10;;;;;;5055309;28;20266;-76
2023/08/12 09:07:47;;;;;;;4.80;2.88;;;34.10;53.80;;;;;;5047526;28;20698;-78
2023/08/12 09:10:15;;;;;;;4.80;2.70;;;34.20;53.00;;;;;;5045904;28;20279;-78
2023/08/12 09:12:47;;;;;;;3.85;2.38;;;33.80;53.50;;;;;;5053937;28;20212;-77
2023/08/12 09:15:21;;;;;;;6.15;2.90;;;33.80;54.90;;;;;;5054910;28;20215;-78
2023/08/12 09:17:56;;;;;;;4.13;2.50;;;35.40;55.00;;;;;;5055072;28;20684;-76
2023/08/12 09:20:29;;;;;;;2.53;2.33;;;36.40;48.70;;;;;;5054788;28;20231;-78
2023/08/12 09:22:58;;;;;;;2.60;2.40;;;36.00;46.20;;;;;;5054675;28;20265;-79
2023/08/12 09:25:27;;;;;;;3.33;2.53;;;36.60;48.10;;;;;;5054866;28;20227;-80
2023/08/12 09:28:00;;;;;;;3.42;2.33;;;37.30;47.60;;;;;;5052630;28;20265;-79
2023/08/12 09:30:32;;;;;;;2.53;2.33;;;37.70;44.10;;;;;;5043257;28;20200;-77
2023/08/12 09:33:04;;;;;;;3.88;2.90;;;36.60;45.50;;;;;;5047958;28;20684;-78
2023/08/12 09:35:38;;;;;;;2.65;2.28;;;35.90;44.10;;;;;;5052841;28;20212;-77
2023/08/12 09:38:08;;;;;;;2.55;2.35;;;35.10;47.90;;;;;;5055000;28;20192;-79
2023/08/12 09:40:38;;;;;;;2.60;2.28;;;33.10;51.40;;;;;;5036138;28;20229;-76
2023/08/12 09:43:06;;;;;;;3.85;2.80;;;32.10;54.60;;;;;;5034930;28;20208;-78
2023/08/12 09:45:36;;;;;;;3.85;2.60;;;32.40;58.00;;;;;;5035120;28;20568;-76
2023/08/12 09:48:07;;;;;;;4.15;2.53;;;32.70;55.50;;;;;;5034897;28;20211;-77
2023/08/12 09:50:37;;;;;;;4.55;2.58;;;32.60;54.10;;;;;;5035169;28;20207;-78
2023/08/12 09:53:06;;;;;;;2.97;2.67;;;32.20;56.70;;;;;;5034045;28;20213;-79
2023/08/12 09:55:37;;;;;;;3.17;2.80;;;31.40;60.20;;;;;;5034761;28;20300;-77
2023/08/12 09:58:08;;;;;;;5.18;2.50;;;31.10;58.20;;;;;;5034254;28;20212;-77
2023/08/12 10:00:37;;;;;;;3.47;2.50;;;30.40;60.20;;;;;;5034994;28;20275;-75
2023/08/12 10:03:06;;;;;;;4.72;2.35;;;31.10;57.80;;;;;;5034813;28;20217;-76
2023/08/12 10:05:35;;;;;;;3.42;2.53;;;31.50;62.10;;;;;;5048075;28;20215;-77
2023/08/12 10:08:06;;;;;;;3.47;2.60;;;30.70;60.20;;;;;;5053886;28;20226;-77
2023/08/12 10:10:37;;;;;;;5.10;2.40;;;30.80;59.70;;;;;;5054506;28;20191;-77
2023/08/12 10:13:07;;;;;;;4.65;2.60;;;31.40;58.20;;;;;;5044076;28;20275;-77
2023/08/12 10:15:36;;;;;;;2.67;2.47;;;31.50;60.00;;;;;;5034245;28;20557;-77
2023/08/12 10:18:06;;;;;;;2.65;2.33;;;32.10;54.60;;;;;;5034217;28;20209;-78
2023/08/12 10:20:39;;;;;;;5.43;2.50;;;32.30;60.80;;;;;;5038009;28;20254;-76
2023/08/12 10:23:15;;;;;;;3.97;2.58;;;32.70;58.60;;;;;;5053546;28;20204;-78
2023/08/12 10:25:45;;;;;;;2.63;2.42;;;33.30;53.70;;;;;;5053967;28;20239;-76
2023/08/12 10:28:13;;;;;;;3.80;2.50;;;34.40;52.70;;;;;;5053990;28;20697;-77
2023/08/12 10:30:42;;;;;;;4.13;2.40;;;35.00;49.00;;;;;;5054231;28;20215;-77
2023/08/12 10:33:11;;;;;;;3.22;2.95;;;35.00;51.00;;;;;;5056996;28;20727;-78
2023/08/12 10:35:44;;;;;;;3.38;2.70;;;35.00;50.90;;;;;;5057001;28;20269;-77
2023/08/12 10:38:15;;;;;;;3.55;2.72;;;35.40;50.80;;;;;;5059851;28;20216;-77
2023/08/12 10:40:44;;;;;;;2.83;2.53;;;34.70;50.30;;;;;;5042719;28;20687;-78
2023/08/12 10:43:13;;;;;;;3.00;2.70;;;34.50;53.10;;;;;;5033815;28;20209;-77
2023/08/12 10:45:44;;;;;;;3.75;2.40;;;34.00;54.20;;;;;;5034115;28;20216;-75
2023/08/12 10:48:19;;;;;;;3.45;2.60;;;33.40;54.30;;;;;;5034103;28;20213;-77
2023/08/12 10:50:50;;;;;;;2.90;2.70;;;32.90;54.60;;;;;;5034009;28;20244;-78
2023/08/12 10:53:31;;;;;;;2.63;2.42;;;32.80;53.80;;;;;;5035174;28;20219;-77
2023/08/12 10:56:01;;;;;;;3.38;2.58;;;32.60;53.80;;;;;;5033816;28;20266;-76
2023/08/12 10:58:31;;;;;;;3.95;2.70;;;32.20;56.70;;;;;;5045354;28;20212;-78
2023/08/12 11:00:59;;;;;;;3.15;2.60;;;32.20;57.70;;;;;;5053434;28;20273;-78
2023/08/12 11:03:33;;;;;;;3.50;2.75;;;32.40;56.60;;;;;;5052114;28;20295;-76
2023/08/12 11:06:06;;;;;;;2.85;2.55;;;32.60;56.90;;;;;;5043617;28;20216;-79
2023/08/12 11:08:36;;;;;;;4.63;3.20;;;33.10;55.50;;;;;;5032609;28;20216;-79
2023/08/12 11:11:20;;;;;;;4.55;2.70;;;33.40;58.20;;;;;;5032903;28;20271;-78
2023/08/12 11:13:54;;;;;;;7.05;3.00;;;33.90;58.20;;;;;;5039943;28;20235;-77
2023/08/12 11:16:33;;;;;;;3.03;2.70;;;33.90;52.70;;;;;;5052736;28;20192;-78
2023/08/12 11:19:01;;;;;;;5.60;2.80;;;33.60;54.40;;;;;;5052591;28;20760;-77
2023/08/12 11:21:30;;;;;;;5.70;2.72;;;33.90;57.40;;;;;;5052779;28;20227;-77
2023/08/12 11:24:00;;;;;;;4.78;2.90;;;33.90;57.50;;;;;;5051057;28;20212;-78
2023/08/12 11:26:29;;;;;;;7.63;3.05;;;33.80;56.90;;;;;;5052729;28;20622;-76
2023/08/12 11:28:57;;;;;;;4.38;2.90;;;33.90;56.00;;;;;;5052836;28;20262;-77
2023/08/12 11:31:27;;;;;;;3.75;2.50;;;32.90;56.40;;;;;;5052778;28;20212;-76
2023/08/12 11:33:55;;;;;;;5.25;3.20;;;33.50;59.00;;;;;;5036471;28;20698;-78
2023/08/12 11:36:24;;;;;;;4.45;2.72;;;33.70;56.70;;;;;;5032879;28;20209;-79
2023/08/12 11:38:52;;;;;;;4.97;2.72;;;33.40;59.70;;;;;;5032167;28;20774;-77
2023/08/12 11:41:23;;;;;;;5.20;3.20;;;33.30;59.50;;;;;;5032730;28;20613;-78
2023/08/12 11:43:51;;;;;;;4.13;2.95;;;33.30;57.20;;;;;;5032591;28;20212;-76
2023/08/12 11:46:20;;;;;;;6.68;2.80;;;33.00;57.90;;;;;;5032221;28;20228;-78
2023/08/12 11:48:48;;;;;;;5.20;3.00;;;33.10;58.70;;;;;;5033155;28;20219;-77
2023/08/12 11:51:19;;;;;;;3.97;2.83;;;33.10;59.90;;;;;;5033045;28;20280;-78
2023/08/12 11:53:47;;;;;;;4.40;2.92;;;33.20;60.30;;;;;;5032196;28;20221;-81
2023/08/12 11:56:16;;;;;;;3.50;3.20;;;33.00;55.40;;;;;;5037214;28;20216;-79
2023/08/12 11:58:49;;;;;;;8.07;2.60;;;33.10;59.20;;;;;;5052101;28;20269;-80
2023/08/12 12:01:22;;;;;;;5.55;2.90;;;33.20;60.10;;;;;;5043474;28;20208;-76
2023/08/12 12:03:52;;;;;;;3.53;3.00;;;33.10;59.00;;;;;;5032196;28;20707;-77
2023/08/12 12:06:30;;;;;;;3.67;2.70;;;33.00;59.60;;;;;;5032778;28;20284;-78
2023/08/12 12:09:02;;;;;;;3.20;2.55;;;33.10;54.20;;;;;;5032278;28;20291;-77
2023/08/12 12:11:31;;;;;;;3.63;2.58;;;33.20;55.80;;;;;;5050454;28;20208;-76
2023/08/12 12:14:03;;;;;;;2.40;2.20;;;33.20;52.50;;;;;;5052070;28;20215;-77
2023/08/12 12:16:42;;;;;;;4.28;2.30;;;33.10;52.70;;;;;;5051492;28;20192;-77
2023/08/12 12:19:14;;;;;;;4.35;2.67;;;33.20;51.60;;;;;;5033559;28;20209;-76
2023/08/12 12:21:46;;;;;;;5.07;2.30;;;33.20;54.30;;;;;;5032248;28;20193;-75
2023/08/12 12:24:14;;;;;;;3.40;2.50;;;33.30;54.70;;;;;;5032022;28;20622;-77
2023/08/12 12:26:42;;;;;;;2.80;2.47;;;33.20;51.00;;;;;;5031988;28;20683;-77
2023/08/12 12:29:13;;;;;;;3.30;2.30;;;33.20;51.40;;;;;;5032091;28;20212;-78
2023/08/12 12:31:42;;;;;;;3.67;2.40;;;33.30;52.90;;;;;;5030590;28;20270;-78
2023/08/12 12:34:10;;;;;;;4.40;2.45;;;33.10;51.40;;;;;;5050045;28;20549;-76
2023/08/12 12:36:39;;;;;;;5.30;2.70;;;33.20;49.90;;;;;;5067695;28;20273;-78
2023/08/12 12:39:08;;;;;;;4.53;2.67;;;33.20;53.40;;;;;;5049259;28;20541;-77
2023/08/12 12:41:36;;;;;;;3.30;2.65;;;33.10;54.40;;;;;;5031719;28;20645;-77
2023/08/12 12:44:05;;;;;;;4.18;2.70;;;33.20;53.80;;;;;;5032189;28;20216;-75
2023/08/12 12:46:36;;;;;;;2.92;2.63;;;33.00;53.50;;;;;;5032066;28;20232;-77
2023/08/12 12:49:05;;;;;;;3.80;2.75;;;33.20;55.00;;;;;;5038336;28;20212;-77
2023/08/12 12:51:34;;;;;;;5.57;2.88;;;32.90;55.40;;;;;;5037631;28;20211;-79
2023/08/12 12:54:02;;;;;;;2.78;2.58;;;33.00;55.10;;;;;;5031535;28;20690;-76
2023/08/12 12:56:30;;;;;;;3.33;2.70;;;33.10;55.20;;;;;;5031833;28;20574;-76